createdAt,value
2023-02-01T00:00:58.031Z,80.40
2023-02-01T00:03:24.489Z,80.31
2023-02-01T00:05:58.315Z,80.39
2023-02-01T00:08:24.816Z,80.34
2023-02-01T00:10:58.550Z,80.47
2023-02-01T00:13:24.972Z,80.34
2023-02-01T00:15:51.468Z,80.73
2023-02-01T00:18:17.926Z,80.85
2023-02-01T00:20:47.942Z,80.72
2023-02-01T00:23:14.363Z,80.71
2023-02-01T00:25:40.970Z,80.21
2023-02-01T00:28:07.432Z,79.83
2023-02-01T00:30:33.867Z,80.35
2023-02-01T00:33:00.506Z,80.41
2023-02-01T00:35:26.935Z,80.37
2023-02-01T00:37:53.331Z,81.02
2023-02-01T00:40:20.137Z,80.72
2023-02-01T00:42:46.956Z,80.30
2023-02-01T00:45:13.373Z,80.38
2023-02-01T00:47:39.973Z,80.58
2023-02-01T00:50:06.760Z,80.74
2023-02-01T00:52:33.275Z,80.86
2023-02-01T00:54:59.718Z,81.25
2023-02-01T00:57:26.322Z,81.26
2023-02-01T00:59:53.021Z,81.10
2023-02-01T01:02:19.921Z,80.87
2023-02-01T01:04:46.659Z,80.74
2023-02-01T01:07:13.101Z,80.92
2023-02-01T01:09:39.598Z,80.91
2023-02-01T01:12:06.097Z,81.26
2023-02-01T01:14:33.208Z,81.51
2023-02-01T01:16:59.653Z,81.42
2023-02-01T01:19:26.092Z,81.84
2023-02-01T01:21:52.571Z,81.99
2023-02-01T01:24:18.997Z,82.06
2023-02-01T01:26:45.487Z,82.08
2023-02-01T01:29:12.180Z,82.32
2023-02-01T01:31:38.686Z,82.22
2023-02-01T01:34:05.136Z,81.95
2023-02-01T01:36:31.585Z,82.05
2023-02-01T01:38:58.050Z,82.45
2023-02-01T01:41:25.528Z,82.22
2023-02-01T01:43:52.091Z,82.72
2023-02-01T01:46:19.317Z,82.82
2023-02-01T01:48:45.885Z,82.84
2023-02-01T01:51:12.741Z,82.81
2023-02-01T01:53:39.785Z,82.65
2023-02-01T01:56:06.347Z,83.01
2023-02-01T01:58:33.135Z,82.63
2023-02-01T02:00:59.600Z,83.07
2023-02-01T02:03:29.231Z,83.16
2023-02-01T02:05:56.566Z,83.16
2023-02-01T02:08:23.107Z,82.23
2023-02-01T02:11:01.853Z,82.55
2023-02-01T02:13:47.749Z,82.63
2023-02-01T02:16:17.223Z,82.48
2023-02-01T02:19:02.450Z,82.71
2023-02-01T02:21:44.537Z,82.59
2023-02-01T02:24:10.964Z,82.77
2023-02-01T02:26:49.017Z,82.18
2023-02-01T02:29:33.928Z,81.87
2023-02-01T02:32:03.374Z,81.70
2023-02-01T02:34:32.020Z,82.02
2023-02-01T02:37:10.939Z,81.92
2023-02-01T02:39:40.973Z,81.98
2023-02-01T02:42:38.369Z,82.33
2023-02-01T02:45:23.335Z,82.32
2023-02-01T02:47:59.042Z,82.15
2023-02-01T02:50:48.745Z,82.38
2023-02-01T02:53:34.753Z,81.98
2023-02-01T02:56:19.946Z,81.82
2023-02-01T02:59:05.171Z,81.89
2023-02-01T03:01:50.342Z,81.86
2023-02-01T03:04:18.764Z,82.07
2023-02-01T03:06:46.408Z,82.27
2023-02-01T03:09:18.823Z,81.96
2023-02-01T03:12:03.923Z,82.48
2023-02-01T03:14:30.385Z,82.45
2023-02-01T03:17:01.573Z,82.26
2023-02-01T03:19:50.451Z,82.45
2023-02-01T03:22:18.741Z,81.93
2023-02-01T03:24:45.939Z,82.10
2023-02-01T03:27:18.612Z,82.06
2023-02-01T03:29:51.403Z,81.91
2023-02-01T03:32:18.157Z,82.18
2023-02-01T03:34:44.683Z,82.36
2023-02-01T03:37:11.641Z,82.44
2023-02-01T03:39:48.985Z,81.85
2023-02-01T03:42:23.548Z,82.25
2023-02-01T03:44:50.162Z,81.99
2023-02-01T03:47:17.721Z,81.55
2023-02-01T03:49:45.246Z,81.85
2023-02-01T03:52:15.995Z,81.59
2023-02-01T03:54:42.641Z,81.72
2023-02-01T03:57:10.869Z,81.28
2023-02-01T03:59:41.305Z,81.67
2023-02-01T04:02:07.866Z,80.87
2023-02-01T04:04:34.924Z,80.35
2023-02-01T04:07:01.379Z,79.60
2023-02-01T04:09:27.828Z,78.86
2023-02-01T04:11:54.342Z,78.32
2023-02-01T04:14:20.823Z,77.97
2023-02-01T04:16:47.448Z,78.87
2023-02-01T04:19:14.110Z,78.46
2023-02-01T04:21:40.590Z,77.80
2023-02-01T04:24:07.236Z,77.48
2023-02-01T04:26:33.692Z,77.83
2023-02-01T04:29:00.188Z,78.05
2023-02-01T04:31:26.931Z,78.15
2023-02-01T04:33:53.928Z,77.85
2023-02-01T04:36:23.370Z,78.87
2023-02-01T04:38:50.455Z,78.56
2023-02-01T04:41:19.738Z,78.96
2023-02-01T04:43:49.376Z,78.89
2023-02-01T04:46:15.944Z,78.76
2023-02-01T04:48:42.851Z,79.17
2023-02-01T04:51:09.513Z,79.67
2023-02-01T04:53:35.976Z,79.86
2023-02-01T04:56:02.518Z,79.96
2023-02-01T04:58:28.976Z,79.89
2023-02-01T05:00:55.426Z,80.36
2023-02-01T05:03:22.007Z,80.27
2023-02-01T05:05:49.248Z,80.09
2023-02-01T05:08:15.907Z,79.55
2023-02-01T05:10:42.348Z,79.07
2023-02-01T05:13:28.092Z,78.64
2023-02-01T05:15:54.522Z,77.90
2023-02-01T05:18:21.079Z,77.64
2023-02-01T05:20:47.544Z,77.48
2023-02-01T05:23:14.041Z,77.23
2023-02-01T05:25:40.695Z,77.00
2023-02-01T05:28:07.268Z,77.04
2023-02-01T05:30:36.139Z,77.48
2023-02-01T05:33:03.085Z,77.42
2023-02-01T05:35:29.563Z,77.79
2023-02-01T05:37:56.088Z,77.74
2023-02-01T05:40:22.816Z,78.17
2023-02-01T05:42:49.442Z,77.74
2023-02-01T05:45:15.934Z,78.15
2023-02-01T05:47:42.387Z,78.17
2023-02-01T05:50:09.073Z,78.03
2023-02-01T05:52:35.727Z,78.28
2023-02-01T05:55:02.226Z,78.37
2023-02-01T05:57:29.596Z,78.32
2023-02-01T05:59:56.026Z,78.22
2023-02-01T06:02:22.871Z,78.14
2023-02-01T06:04:49.392Z,78.30
2023-02-01T06:07:15.819Z,77.97
2023-02-01T06:09:42.239Z,77.45
2023-02-01T06:12:08.689Z,78.06
2023-02-01T06:14:35.143Z,76.09
2023-02-01T06:17:01.775Z,76.48
2023-02-01T06:19:28.214Z,76.45
2023-02-01T06:21:54.713Z,76.33
2023-02-01T06:24:21.161Z,76.38
2023-02-01T06:26:47.895Z,76.14
2023-02-01T06:29:14.575Z,75.16
2023-02-01T06:31:41.505Z,75.13
2023-02-01T06:34:08.002Z,75.13
2023-02-01T06:36:34.541Z,75.53
2023-02-01T06:39:00.982Z,75.84
2023-02-01T06:41:29.465Z,75.27
2023-02-01T06:43:56.245Z,75.44
2023-02-01T06:46:22.942Z,75.55
2023-02-01T06:48:50.368Z,75.32
2023-02-01T06:51:21.038Z,75.24
2023-02-01T06:53:47.498Z,75.46
2023-02-01T06:56:13.993Z,75.53
2023-02-01T06:58:40.557Z,75.94
2023-02-01T07:01:07.563Z,76.27
2023-02-01T07:03:34.130Z,76.14
2023-02-01T07:06:00.615Z,76.16
2023-02-01T07:08:30.175Z,75.81
2023-02-01T07:10:56.731Z,76.11
2023-02-01T07:13:23.323Z,75.71
2023-02-01T07:15:50.072Z,75.70
2023-02-01T07:18:16.616Z,75.87
2023-02-01T07:20:43.192Z,75.64
2023-02-01T07:23:12.767Z,76.30
2023-02-01T07:25:39.269Z,75.97
2023-02-01T07:28:05.705Z,76.11
2023-02-01T07:30:32.232Z,75.90
2023-02-01T07:33:02.216Z,75.16
2023-02-01T07:35:29.102Z,74.96
2023-02-01T07:37:55.671Z,75.10
2023-02-01T07:40:29.504Z,75.36
2023-02-01T07:42:56.712Z,75.78
2023-02-01T07:45:23.513Z,75.10
2023-02-01T07:47:50.181Z,75.46
2023-02-01T07:50:16.929Z,75.15
2023-02-01T07:52:43.404Z,75.05
2023-02-01T07:55:09.983Z,74.65
2023-02-01T07:57:36.444Z,74.29
2023-02-01T08:00:22.439Z,74.22
2023-02-01T08:02:49.087Z,72.67
2023-02-01T08:05:15.584Z,71.99
2023-02-01T08:07:42.092Z,72.41
2023-02-01T08:10:11.758Z,71.57
2023-02-01T08:12:38.502Z,71.02
2023-02-01T08:15:05.215Z,71.12
2023-02-01T08:17:31.713Z,70.85
2023-02-01T08:19:58.477Z,70.68
2023-02-01T08:22:24.970Z,71.25
2023-02-01T08:24:51.545Z,71.37
2023-02-01T08:27:18.067Z,70.62
2023-02-01T08:29:44.716Z,70.61
2023-02-01T08:32:11.257Z,70.63
2023-02-01T08:34:37.730Z,71.03
2023-02-01T08:37:04.270Z,71.33
2023-02-01T08:39:30.715Z,71.02
2023-02-01T08:42:15.760Z,71.09
2023-02-01T08:44:42.219Z,70.73
2023-02-01T08:47:08.708Z,70.02
2023-02-01T08:49:35.148Z,70.45
2023-02-01T08:52:07.240Z,70.10
2023-02-01T08:54:37.212Z,70.31
2023-02-01T08:57:03.756Z,70.12
2023-02-01T08:59:30.422Z,70.06
2023-02-01T09:01:57.188Z,70.46
2023-02-01T09:04:23.756Z,71.16
2023-02-01T09:06:50.269Z,70.59
2023-02-01T09:09:16.738Z,71.06
2023-02-01T09:11:43.214Z,71.11
2023-02-01T09:14:09.763Z,70.80
2023-02-01T09:16:36.309Z,70.92
2023-02-01T09:19:24.474Z,70.90
2023-02-01T09:21:49.203Z,71.13
2023-02-01T09:24:15.667Z,71.69
2023-02-01T09:26:42.135Z,71.73
2023-02-01T09:29:11.631Z,71.62
2023-02-01T09:31:40.014Z,71.64
2023-02-01T09:34:06.815Z,71.50
2023-02-01T09:36:33.377Z,70.83
2023-02-01T09:39:00.176Z,71.11
2023-02-01T09:41:39.099Z,70.70
2023-02-01T09:44:44.781Z,70.21
2023-02-01T09:47:20.797Z,70.41
2023-02-01T09:49:53.833Z,70.04
2023-02-01T09:52:21.132Z,70.07
2023-02-01T09:54:51.727Z,70.40
2023-02-01T09:57:20.673Z,70.38
2023-02-01T10:00:07.384Z,69.16
2023-02-01T10:02:33.867Z,69.63
2023-02-01T10:05:00.612Z,68.96
2023-02-01T10:07:39.088Z,69.34
2023-02-01T10:10:11.695Z,69.54
2023-02-01T10:12:53.421Z,69.77
2023-02-01T10:15:29.593Z,69.83
2023-02-01T10:17:59.400Z,69.31
2023-02-01T10:24:05.995Z,70.42
2023-02-01T10:26:38.072Z,71.07
2023-02-01T10:29:05.590Z,71.03
2023-02-01T10:31:36.738Z,70.57
2023-02-01T10:34:23.508Z,71.05
2023-02-01T10:37:08.962Z,71.12
2023-02-01T10:39:35.596Z,71.04
2023-02-01T10:42:02.027Z,70.72
2023-02-01T10:44:29.082Z,71.15
2023-02-01T10:46:55.583Z,70.89
2023-02-01T10:49:24.047Z,71.21
2023-02-01T10:51:59.537Z,71.24
2023-02-01T10:57:56.496Z,70.88
2023-02-01T11:00:23.473Z,70.88
2023-02-01T11:02:51.474Z,71.10
2023-02-01T11:05:19.883Z,71.41
2023-02-01T11:07:49.866Z,71.36
2023-02-01T11:10:35.776Z,71.20
2023-02-01T11:13:05.662Z,71.73
2023-02-01T11:15:32.100Z,71.44
2023-02-01T11:18:00.129Z,71.15
2023-02-01T11:20:32.632Z,71.38
2023-02-01T11:22:59.186Z,71.53
2023-02-01T11:25:26.039Z,71.81
2023-02-01T11:27:56.043Z,72.73
2023-02-01T11:30:40.110Z,73.71
2023-02-01T11:33:07.155Z,73.47
2023-02-01T11:35:33.797Z,73.87
2023-02-01T11:38:00.357Z,74.71
2023-02-01T11:40:31.082Z,75.62
2023-02-01T11:43:01.900Z,75.46
2023-02-01T11:45:29.224Z,75.62
2023-02-01T11:47:56.494Z,76.37
2023-02-01T11:50:43.401Z,76.38
2023-02-01T11:53:16.009Z,77.16
2023-02-01T11:56:01.253Z,77.29
2023-02-01T11:58:30.785Z,77.41
2023-02-01T12:01:32.936Z,77.26
2023-02-01T12:04:02.091Z,77.56
2023-02-01T12:06:55.019Z,77.80
2023-02-01T12:09:21.555Z,77.84
2023-02-01T12:11:52.111Z,78.11
2023-02-01T12:14:19.929Z,77.98
2023-02-01T12:17:07.670Z,77.55
2023-02-01T12:19:37.226Z,78.23
2023-02-01T12:22:12.849Z,77.97
2023-02-01T12:24:45.481Z,78.06
2023-02-01T12:27:24.886Z,78.34
2023-02-01T12:29:57.470Z,77.92
2023-02-01T12:32:30.027Z,77.74
2023-02-01T12:38:49.588Z,77.93
2023-02-01T12:41:25.340Z,77.63
2023-02-01T12:43:59.387Z,76.81
2023-02-01T12:46:25.844Z,77.07
2023-02-01T12:52:35.835Z,77.30
2023-02-01T12:55:04.703Z,77.16
2023-02-01T13:01:01.724Z,77.31
2023-02-01T13:03:30.690Z,77.83
2023-02-01T13:06:03.760Z,78.62
2023-02-01T13:08:35.318Z,78.45
2023-02-01T13:11:04.344Z,78.60
2023-02-01T13:13:35.267Z,78.12
2023-02-01T13:16:19.217Z,78.13
2023-02-01T13:18:46.852Z,78.46
2023-02-01T13:21:15.854Z,78.13
2023-02-01T13:27:14.245Z,78.99
2023-02-01T13:30:01.069Z,79.12
2023-02-01T13:39:49.274Z,78.96
2023-02-01T13:42:39.135Z,78.70
2023-02-01T13:45:06.856Z,79.58
2023-02-01T13:47:34.884Z,79.12
2023-02-01T13:50:03.383Z,79.01
2023-02-01T13:52:40.126Z,78.84
2023-02-01T13:55:17.209Z,78.51
2023-02-01T13:57:44.792Z,78.93
2023-02-01T14:00:23.811Z,78.63
2023-02-01T14:03:10.997Z,79.06
2023-02-01T14:05:40.457Z,78.89
2023-02-01T14:08:07.160Z,79.26
2023-02-01T14:10:48.938Z,79.49
2023-02-01T14:13:29.027Z,79.46
2023-02-01T14:16:04.865Z,79.77
2023-02-01T14:18:34.368Z,79.66
2023-02-01T14:21:23.807Z,79.70
2023-02-01T14:24:08.583Z,80.46
2023-02-01T14:26:38.298Z,80.36
2023-02-01T14:29:10.482Z,80.68
2023-02-01T14:31:55.345Z,80.38
2023-02-01T14:34:30.709Z,79.76
2023-02-01T14:36:57.172Z,79.72
2023-02-01T14:39:25.560Z,79.64
2023-02-01T14:41:54.088Z,79.97
2023-02-01T14:44:33.609Z,79.48
2023-02-01T14:47:03.061Z,79.21
2023-02-01T14:49:37.343Z,79.21
2023-02-01T14:52:05.893Z,78.63
2023-02-01T14:54:32.355Z,78.22
2023-02-01T14:56:58.964Z,78.35
2023-02-01T14:59:25.508Z,78.37
2023-02-01T15:01:53.551Z,78.34
2023-02-01T15:04:22.585Z,77.94
2023-02-01T15:06:53.250Z,78.43
2023-02-01T15:09:20.630Z,77.69
2023-02-01T15:15:18.226Z,77.61
2023-02-01T15:18:03.050Z,76.86
2023-02-01T15:20:33.982Z,77.02
2023-02-01T15:23:05.369Z,76.99
2023-02-01T15:25:35.223Z,76.24
2023-02-01T15:28:01.725Z,76.53
2023-02-01T15:30:29.223Z,76.01
2023-02-01T15:33:25.661Z,76.71
2023-02-01T15:35:53.397Z,76.64
2023-02-01T15:38:20.692Z,76.75
2023-02-01T15:41:06.323Z,76.09
2023-02-01T15:43:34.198Z,76.31
2023-02-01T15:46:01.599Z,75.46
2023-02-01T15:48:29.176Z,75.43
2023-02-01T15:50:56.654Z,75.64
2023-02-01T15:53:24.243Z,75.39
2023-02-01T15:55:55.239Z,75.09
2023-02-01T15:58:22.326Z,75.48
2023-02-01T16:00:50.179Z,76.16
2023-02-01T16:03:25.846Z,76.14
2023-02-01T16:05:56.636Z,75.81
2023-02-01T16:08:23.950Z,74.93
2023-02-01T16:10:51.552Z,74.86
2023-02-01T16:13:18.701Z,74.36
2023-02-01T16:15:45.281Z,74.61
2023-02-01T16:18:12.228Z,75.64
2023-02-01T16:20:40.015Z,74.66
2023-02-01T16:23:08.103Z,74.85
2023-02-01T16:25:34.675Z,74.55
2023-02-01T16:28:01.156Z,74.44
2023-02-01T16:30:27.634Z,74.55
2023-02-01T16:32:56.034Z,74.29
2023-02-01T16:35:26.054Z,74.11
2023-02-01T16:41:21.041Z,74.75
2023-02-01T16:43:50.214Z,74.34
2023-02-01T16:46:17.614Z,74.96
2023-02-01T16:48:46.719Z,74.48
2023-02-01T16:51:17.108Z,75.33
2023-02-01T16:53:53.949Z,74.98
2023-02-01T16:56:25.035Z,75.28
2023-02-01T16:58:51.640Z,75.34
2023-02-01T17:01:19.594Z,75.75
2023-02-01T17:03:46.879Z,75.26
2023-02-01T17:06:18.007Z,75.97
2023-02-01T17:08:45.553Z,75.71
2023-02-01T17:11:12.858Z,75.77
2023-02-01T17:13:39.358Z,75.62
2023-02-01T17:16:07.239Z,75.98
2023-02-01T17:18:34.634Z,75.82
2023-02-01T17:21:01.632Z,75.72
2023-02-01T17:23:28.994Z,75.58
2023-02-01T17:25:55.757Z,75.41
2023-02-01T17:28:22.340Z,75.41
2023-02-01T17:30:48.934Z,74.75
2023-02-01T17:33:27.449Z,74.37
2023-02-01T17:35:54.547Z,74.54
2023-02-01T17:38:21.102Z,73.83
2023-02-01T17:40:47.606Z,73.62
2023-02-01T17:43:14.894Z,73.63
2023-02-01T17:45:52.602Z,73.38
2023-02-01T17:48:22.461Z,73.32
2023-02-01T17:50:50.988Z,73.85
2023-02-01T17:53:20.465Z,72.80
2023-02-01T17:55:46.954Z,72.08
2023-02-01T17:58:13.828Z,71.76
2023-02-01T18:00:40.764Z,72.24
2023-02-01T18:03:07.319Z,72.20
2023-02-01T18:05:41.314Z,73.13
2023-02-01T18:08:07.856Z,73.09
2023-02-01T18:10:35.789Z,74.08
2023-02-01T18:13:02.566Z,74.29
2023-02-01T18:15:29.606Z,74.58
2023-02-01T18:17:56.153Z,74.37
2023-02-01T18:20:23.385Z,74.43
2023-02-01T18:22:49.847Z,74.70
2023-02-01T18:25:23.740Z,74.66
2023-02-01T18:27:52.251Z,74.88
2023-02-01T18:30:19.355Z,75.45
2023-02-01T18:32:46.113Z,75.62
2023-02-01T18:35:31.420Z,75.81
2023-02-01T18:37:58.059Z,75.71
2023-02-01T18:40:25.457Z,75.68
2023-02-01T18:42:51.905Z,76.06
2023-02-01T18:45:27.270Z,75.69
2023-02-01T18:47:54.066Z,75.59
2023-02-01T18:50:20.610Z,75.47
2023-02-01T18:52:47.220Z,75.13
2023-02-01T18:55:13.782Z,74.91
2023-02-01T18:57:40.361Z,74.91
2023-02-01T19:00:07.489Z,75.01
2023-02-01T19:02:34.028Z,75.29
2023-02-01T19:05:00.555Z,75.03
2023-02-01T19:07:29.445Z,74.75
2023-02-01T19:09:55.900Z,74.22
2023-02-01T19:12:22.500Z,74.41
2023-02-01T19:14:49.043Z,74.33
2023-02-01T19:17:16.736Z,73.73
2023-02-01T19:19:44.555Z,73.61
2023-02-01T19:22:11.060Z,73.74
2023-02-01T19:24:39.027Z,73.72
2023-02-01T19:27:05.517Z,73.71
2023-02-01T19:29:32.101Z,74.18
2023-02-01T19:31:58.723Z,73.77
2023-02-01T19:34:25.274Z,74.39
2023-02-01T19:36:52.696Z,73.70
2023-02-01T19:39:20.649Z,74.05
2023-02-01T19:41:47.162Z,73.51
2023-02-01T19:44:14.686Z,73.25
2023-02-01T19:46:41.577Z,73.60
2023-02-01T19:49:12.117Z,73.54
2023-02-01T19:51:41.001Z,73.16
2023-02-01T19:54:08.999Z,72.87
2023-02-01T19:56:35.885Z,72.53
2023-02-01T19:59:02.492Z,72.38
2023-02-01T20:01:28.221Z,72.84
2023-02-01T20:03:58.620Z,72.72
2023-02-01T20:06:25.083Z,73.15
2023-02-01T20:08:51.894Z,73.28
2023-02-01T20:11:18.405Z,74.28
2023-02-01T20:13:45.349Z,74.24
2023-02-01T20:16:14.418Z,74.32
2023-02-01T20:18:40.943Z,75.03
2023-02-01T20:21:07.515Z,75.77
2023-02-01T20:23:34.001Z,76.11
2023-02-01T20:26:02.786Z,76.78
2023-02-01T20:28:29.386Z,77.01
2023-02-01T20:30:56.515Z,78.20
2023-02-01T20:36:51.278Z,78.63
2023-02-01T20:39:17.850Z,78.93
2023-02-01T20:41:44.302Z,79.86
2023-02-01T20:44:10.811Z,80.33
2023-02-01T20:46:37.352Z,80.59
2023-02-01T20:49:04.193Z,80.98
2023-02-01T20:51:30.763Z,81.38
2023-02-01T20:53:57.249Z,81.26
2023-02-01T20:56:23.756Z,81.59
2023-02-01T20:58:50.238Z,81.68
2023-02-01T21:01:16.697Z,81.84
2023-02-01T21:03:43.283Z,81.89
2023-02-01T21:06:10.413Z,82.09
2023-02-01T21:08:36.963Z,81.87
2023-02-01T21:11:04.562Z,81.78
2023-02-01T21:13:31.637Z,81.27
2023-02-01T21:15:59.093Z,81.08
2023-02-01T21:18:25.663Z,80.60
2023-02-01T21:20:52.229Z,80.14
2023-02-01T21:23:18.776Z,79.93
2023-02-01T21:25:45.321Z,79.52
2023-02-01T21:28:11.874Z,78.95
2023-02-01T21:30:38.620Z,78.52
2023-02-01T21:33:05.308Z,77.80
2023-02-01T21:35:31.873Z,77.70
2023-02-01T21:37:58.421Z,77.72
2023-02-01T21:40:24.899Z,77.91
2023-02-01T21:42:51.447Z,77.80
2023-02-01T21:45:18.028Z,77.74
2023-02-01T21:47:44.518Z,77.49
2023-02-01T21:50:15.569Z,77.27
2023-02-01T21:52:43.081Z,77.15
2023-02-01T21:55:09.736Z,77.31
2023-02-01T21:57:36.214Z,77.19
2023-02-01T22:00:04.266Z,76.58
2023-02-01T22:02:30.817Z,74.96
2023-02-01T22:04:57.850Z,75.17
2023-02-01T22:07:24.348Z,74.56
2023-02-01T22:09:50.842Z,73.67
2023-02-01T22:12:17.961Z,73.38
2023-02-01T22:14:46.439Z,73.13
2023-02-01T22:17:13.176Z,71.10
2023-02-01T22:19:40.031Z,71.44
2023-02-01T22:22:06.550Z,71.86
2023-02-01T22:24:35.033Z,72.36
2023-02-01T22:27:14.045Z,71.63
2023-02-01T22:29:41.634Z,70.84
2023-02-01T22:32:08.652Z,71.79
2023-02-01T22:34:35.183Z,71.83
2023-02-01T22:37:01.689Z,72.18
2023-02-01T22:39:28.155Z,72.69
2023-02-01T22:41:54.609Z,73.01
2023-02-01T22:44:21.155Z,72.88
2023-02-01T22:46:47.656Z,73.01
2023-02-01T22:49:14.238Z,72.62
2023-02-01T22:51:40.726Z,72.37
2023-02-01T22:54:07.622Z,72.32
2023-02-01T22:56:34.837Z,72.19
2023-02-01T22:59:02.055Z,71.83
2023-02-01T23:01:28.926Z,70.65
2023-02-01T23:03:59.000Z,70.34
2023-02-01T23:06:25.912Z,70.21
2023-02-01T23:08:59.453Z,70.03
2023-02-01T23:11:26.199Z,68.96
2023-02-01T23:13:52.680Z,70.05
2023-02-01T23:16:19.256Z,69.75
2023-02-01T23:18:45.768Z,69.87
2023-02-01T23:21:13.411Z,69.37
2023-02-01T23:23:39.911Z,69.84
2023-02-01T23:26:06.720Z,69.66
2023-02-01T23:28:33.339Z,69.92
2023-02-01T23:31:00.234Z,69.82
2023-02-01T23:33:27.009Z,69.75
2023-02-01T23:36:01.233Z,70.03
2023-02-01T23:41:56.234Z,69.94
2023-02-01T23:44:22.759Z,70.21
2023-02-01T23:46:49.255Z,69.92
2023-02-01T23:49:16.165Z,69.85
2023-02-01T23:51:42.787Z,69.27
2023-02-01T23:54:09.742Z,69.53
2023-02-01T23:56:37.323Z,69.93
2023-02-01T23:59:05.052Z,69.92
